createdAt,value
2023-02-14T00:07:13.334Z,101747.13
2023-02-14T00:17:15.926Z,101771.41
2023-02-14T00:27:18.458Z,101755.13
2023-02-14T00:37:21.020Z,101743.00
2023-02-14T00:47:23.551Z,101742.81
2023-02-14T00:57:27.485Z,101733.97
2023-02-14T01:07:30.146Z,101733.41
2023-02-14T01:17:32.708Z,101718.25
2023-02-14T01:27:35.252Z,101716.53
2023-02-14T01:37:38.007Z,101721.47
2023-02-14T01:47:43.353Z,101707.31
2023-02-14T01:57:56.048Z,101697.19
2023-02-14T02:08:01.430Z,101676.22
2023-02-14T02:18:16.844Z,101690.16
2023-02-14T02:28:40.885Z,101690.50
2023-02-14T02:38:59.485Z,101697.28
2023-02-14T02:49:47.616Z,101683.94
2023-02-14T02:59:54.752Z,101683.81
2023-02-14T03:10:00.256Z,101680.19
2023-02-14T03:20:16.501Z,101664.94
2023-02-14T03:30:47.159Z,101654.13
2023-02-14T03:40:58.431Z,101676.59
2023-02-14T03:51:04.614Z,101671.25
2023-02-14T04:01:14.285Z,101668.84
2023-02-14T04:11:16.952Z,101659.13
2023-02-14T04:21:19.500Z,101652.91
2023-02-14T04:31:22.065Z,101655.31
2023-02-14T04:41:24.604Z,101646.81
2023-02-14T04:51:27.706Z,101636.97
2023-02-14T05:01:30.308Z,101625.53
2023-02-14T05:11:32.952Z,101618.69
2023-02-14T05:21:35.406Z,101614.56
2023-02-14T05:31:38.045Z,101614.56
2023-02-14T05:41:41.335Z,101632.88
2023-02-14T05:51:43.853Z,101618.25
2023-02-14T06:01:46.429Z,101622.63
2023-02-14T06:11:48.904Z,101642.97
2023-02-14T06:21:51.364Z,101647.88
2023-02-14T06:31:54.026Z,101649.34
2023-02-14T06:41:56.737Z,101665.63
2023-02-14T06:51:59.506Z,101661.28
2023-02-14T07:02:02.023Z,101663.84
2023-02-14T07:12:04.700Z,101680.00
2023-02-14T07:22:07.252Z,101657.66
2023-02-14T07:32:10.063Z,101673.75
2023-02-14T07:42:12.859Z,101663.81
2023-02-14T07:52:15.492Z,101656.72
2023-02-14T08:02:18.065Z,101670.91
2023-02-14T08:12:39.019Z,101676.94
2023-02-14T08:22:41.808Z,101671.53
2023-02-14T08:32:44.463Z,101662.34
2023-02-14T08:42:47.149Z,101655.81
2023-02-14T08:52:49.702Z,101680.63
2023-02-14T09:02:53.331Z,101675.78
2023-02-14T09:12:55.977Z,101677.84
2023-02-14T09:22:58.641Z,101687.53
2023-02-14T09:33:04.345Z,101689.47
2023-02-14T09:43:15.984Z,101685.28
2023-02-14T09:53:43.806Z,101663.41
2023-02-14T10:04:10.953Z,101669.50
2023-02-14T10:14:18.277Z,101661.59
2023-02-14T10:24:30.248Z,101659.84
2023-02-14T10:34:42.859Z,101649.34
2023-02-14T10:45:14.913Z,101644.94
2023-02-14T10:55:34.414Z,101640.56
2023-02-14T11:05:46.695Z,101624.78
2023-02-14T11:15:51.843Z,101616.03
2023-02-14T11:25:55.872Z,101621.28
2023-02-14T11:36:00.094Z,101609.00
2023-02-14T11:46:14.469Z,101602.75
2023-02-14T11:56:20.221Z,101596.44
2023-02-14T12:06:29.219Z,101567.44
2023-02-14T12:16:40.271Z,101580.41
2023-02-14T12:27:40.748Z,101572.44
2023-02-14T12:38:04.955Z,101570.63
2023-02-14T12:48:26.117Z,101556.69
2023-02-14T12:58:49.683Z,101554.63
2023-02-14T13:09:13.586Z,101543.31
2023-02-14T13:19:34.591Z,101554.53
2023-02-14T13:29:47.202Z,101555.41
2023-02-14T13:39:57.341Z,101556.75
2023-02-14T13:50:02.066Z,101552.84
2023-02-14T14:00:19.980Z,101550.91
2023-02-14T14:10:44.769Z,101551.88
2023-02-14T14:20:51.908Z,101544.78
2023-02-14T14:30:55.006Z,101544.78
2023-02-14T14:40:58.073Z,101529.25
2023-02-14T14:51:07.023Z,101522.91
2023-02-14T15:01:28.196Z,101520.81
2023-02-14T15:11:58.507Z,101522.91
2023-02-14T15:22:03.543Z,101529.22
2023-02-14T15:32:09.021Z,101533.72
2023-02-14T15:42:27.674Z,101532.97
2023-02-14T15:52:30.382Z,101534.78
2023-02-14T16:02:38.917Z,101538.28
2023-02-14T16:12:42.390Z,101538.22
2023-02-14T16:22:45.154Z,101545.13
2023-02-14T16:32:50.796Z,101559.88
2023-02-14T16:42:53.913Z,101573.63
2023-02-14T16:52:57.997Z,101580.53
2023-02-14T17:03:06.928Z,101574.34
2023-02-14T17:13:11.076Z,101556.69
2023-02-14T17:23:13.775Z,101582.84
2023-02-14T17:33:16.434Z,101577.25
2023-02-14T17:43:19.268Z,101577.81
2023-02-14T17:53:21.760Z,101574.09
2023-02-14T18:03:24.556Z,101587.97
2023-02-14T18:13:27.421Z,101577.28
2023-02-14T18:23:31.253Z,101573.59
2023-02-14T18:33:35.184Z,101574.16
2023-02-14T18:43:41.006Z,101574.38
2023-02-14T18:53:45.099Z,101579.03
2023-02-14T19:03:49.801Z,101574.50
2023-02-14T19:13:56.182Z,101565.59
2023-02-14T19:23:59.148Z,101579.34
2023-02-14T19:34:02.238Z,101573.25
2023-02-14T19:44:06.743Z,101568.41
2023-02-14T19:54:10.249Z,101559.59
2023-02-14T20:04:16.214Z,101567.66
2023-02-14T20:14:21.362Z,101564.25
2023-02-14T20:24:26.984Z,101551.31
2023-02-14T20:34:29.765Z,101555.78
2023-02-14T20:44:34.741Z,101561.13
2023-02-14T20:54:38.930Z,101554.19
2023-02-14T21:04:41.785Z,101555.09
2023-02-14T21:14:44.519Z,101559.44
2023-02-14T21:24:50.044Z,101557.72
2023-02-14T21:34:52.855Z,101542.81
2023-02-14T21:45:14.188Z,101546.25
2023-02-14T21:55:17.016Z,101557.63
2023-02-14T22:05:19.730Z,101543.75
2023-02-14T22:15:22.160Z,101555.13
2023-02-14T22:25:25.736Z,101553.31
2023-02-14T22:35:28.332Z,101559.25
2023-02-14T22:45:30.736Z,101562.50
2023-02-14T22:55:33.414Z,101555.66
2023-02-14T23:05:36.000Z,101552.97
2023-02-14T23:15:56.778Z,101540.50
2023-02-14T23:26:00.797Z,101544.84
2023-02-14T23:36:04.324Z,101530.72
2023-02-14T23:46:06.816Z,101527.72
2023-02-14T23:56:09.405Z,101527.00
